createdAt,value
2023-04-21T00:00:36.023Z,9.30
2023-04-21T00:03:38.743Z,8.90
2023-04-21T00:06:41.690Z,8.50
2023-04-21T00:09:43.364Z,7.90
2023-04-21T00:12:45.002Z,8.57
2023-04-21T00:15:46.709Z,8.20
2023-04-21T00:18:48.410Z,7.60
2023-04-21T00:21:50.123Z,8.67
2023-04-21T00:24:51.704Z,7.67
2023-04-21T00:27:53.472Z,8.30
2023-04-21T00:30:55.337Z,9.27
2023-04-21T00:33:57.132Z,10.03
2023-04-21T00:36:58.878Z,9.87
2023-04-21T00:40:00.811Z,9.37
2023-04-21T00:43:06.212Z,9.80
2023-04-21T00:46:07.932Z,9.23
2023-04-21T00:49:09.640Z,8.37
2023-04-21T00:52:11.691Z,7.90
2023-04-21T00:55:13.978Z,8.40
2023-04-21T00:58:17.236Z,7.80
2023-04-21T01:01:19.205Z,8.20
2023-04-21T01:04:20.945Z,8.03
2023-04-21T01:07:22.807Z,7.40
2023-04-21T01:10:24.462Z,7.17
2023-04-21T01:13:26.393Z,7.07
2023-04-21T01:16:28.126Z,7.17
2023-04-21T01:19:31.387Z,6.77
2023-04-21T01:22:33.064Z,6.83
2023-04-21T01:25:34.659Z,6.90
2023-04-21T01:28:38.436Z,7.00
2023-04-21T01:31:40.156Z,7.50
2023-04-21T01:34:43.624Z,7.97
2023-04-21T01:37:45.417Z,7.80
2023-04-21T01:40:51.406Z,7.73
2023-04-21T01:43:53.154Z,7.87
2023-04-21T01:46:54.863Z,7.30
2023-04-21T01:49:56.527Z,8.77
2023-04-21T01:52:58.165Z,9.17
2023-04-21T01:55:59.888Z,8.87
2023-04-21T01:59:01.583Z,8.10
2023-04-21T02:02:03.968Z,8.67
2023-04-21T02:05:08.302Z,8.57
2023-04-21T02:08:10.026Z,8.13
2023-04-21T02:11:11.592Z,8.87
2023-04-21T02:14:15.426Z,8.57
2023-04-21T02:17:17.729Z,8.83
2023-04-21T02:20:19.446Z,8.43
2023-04-21T02:23:21.350Z,8.60
2023-04-21T02:26:23.718Z,7.73
2023-04-21T02:29:25.540Z,8.80
2023-04-21T02:32:27.377Z,10.17
2023-04-21T02:35:29.142Z,10.07
2023-04-21T02:38:32.366Z,10.40
2023-04-21T02:41:34.002Z,8.87
2023-04-21T02:44:37.595Z,9.00
2023-04-21T02:47:39.347Z,9.20
2023-04-21T02:50:42.634Z,9.80
2023-04-21T02:53:44.279Z,9.23
2023-04-21T02:56:46.364Z,9.20
2023-04-21T02:59:47.962Z,9.57
2023-04-21T03:02:49.720Z,17.83
2023-04-21T03:05:56.253Z,15.13
2023-04-21T03:08:58.212Z,18.07
2023-04-21T03:12:01.702Z,15.00
2023-04-21T03:15:03.489Z,10.67
2023-04-21T03:18:05.285Z,12.33
2023-04-21T03:21:06.935Z,12.90
2023-04-21T03:24:08.737Z,12.23
2023-04-21T03:27:11.157Z,14.30
2023-04-21T03:30:14.302Z,11.57
2023-04-21T03:33:16.181Z,11.63
2023-04-21T03:36:18.021Z,11.07
2023-04-21T03:39:20.928Z,10.80
2023-04-21T03:42:26.255Z,10.23
2023-04-21T03:45:27.913Z,11.17
2023-04-21T03:48:29.820Z,13.13
2023-04-21T03:51:32.508Z,12.10
2023-04-21T03:54:34.114Z,11.83
2023-04-21T03:57:35.780Z,11.27
2023-04-21T04:00:37.491Z,12.93
2023-04-21T04:03:39.227Z,12.37
2023-04-21T04:06:41.071Z,12.77
2023-04-21T04:09:43.646Z,10.90
2023-04-21T04:12:45.411Z,10.23
2023-04-21T04:15:47.093Z,11.30
2023-04-21T04:18:50.044Z,10.67
2023-04-21T04:21:51.705Z,13.70
2023-04-21T04:24:54.979Z,10.53
2023-04-21T04:27:57.489Z,10.53
2023-04-21T04:31:00.701Z,12.43
2023-04-21T04:34:02.533Z,11.87
2023-04-21T04:37:04.588Z,10.83
2023-04-21T04:40:06.743Z,10.20
2023-04-21T04:43:10.656Z,9.53
2023-04-21T04:46:13.352Z,10.37
2023-04-21T04:49:15.611Z,18.47
2023-04-21T04:52:17.288Z,17.20
2023-04-21T04:55:19.620Z,24.60
2023-04-21T04:58:22.356Z,12.80
2023-04-21T05:01:30.310Z,30.53
2023-04-21T05:04:33.734Z,14.73
2023-04-21T05:07:35.444Z,18.77
2023-04-21T05:10:37.130Z,14.83
2023-04-21T05:13:40.050Z,12.53
2023-04-21T05:16:43.480Z,12.90
2023-04-21T05:19:45.096Z,12.33
2023-04-21T05:22:46.771Z,14.30
2023-04-21T05:25:48.420Z,14.90
2023-04-21T05:28:50.041Z,14.50
2023-04-21T05:31:51.659Z,14.13
2023-04-21T05:34:53.260Z,13.30
2023-04-21T05:37:54.984Z,13.83
2023-04-21T05:40:56.750Z,12.90
2023-04-21T05:43:58.445Z,14.07
2023-04-21T05:47:00.072Z,15.53
2023-04-21T05:50:01.692Z,16.33
2023-04-21T05:53:03.371Z,15.73
2023-04-21T05:56:05.500Z,16.47
2023-04-21T05:59:07.200Z,16.30
2023-04-21T06:02:08.934Z,15.67
2023-04-21T06:05:10.936Z,22.40
2023-04-21T06:08:12.915Z,22.60
2023-04-21T06:11:14.670Z,18.10
2023-04-21T06:14:16.365Z,17.90
2023-04-21T06:17:18.446Z,17.07
2023-04-21T06:20:20.072Z,15.43
2023-04-21T06:23:21.946Z,9.50
2023-04-21T06:26:23.547Z,9.20
2023-04-21T06:29:25.339Z,9.23
2023-04-21T06:32:26.978Z,10.50
2023-04-21T06:35:28.575Z,8.87
2023-04-21T06:38:30.294Z,7.97
2023-04-21T06:41:31.979Z,7.20
2023-04-21T06:44:33.630Z,7.50
2023-04-21T06:47:35.259Z,7.00
2023-04-21T06:50:36.992Z,7.30
2023-04-21T06:53:38.859Z,6.83
2023-04-21T06:56:42.177Z,6.93
2023-04-21T06:59:44.175Z,7.37
2023-04-21T07:02:45.868Z,8.57
2023-04-21T07:05:47.808Z,7.60
2023-04-21T07:08:49.702Z,6.20
2023-04-21T07:11:51.401Z,7.40
2023-04-21T07:14:53.032Z,6.73
2023-04-21T07:17:54.975Z,7.53
2023-04-21T07:20:56.720Z,6.40
2023-04-21T07:24:01.395Z,8.20
2023-04-21T07:27:03.049Z,6.90
2023-04-21T07:30:05.430Z,6.67
2023-04-21T07:33:07.087Z,6.53
2023-04-21T07:36:08.996Z,6.87
2023-04-21T07:39:10.846Z,7.03
2023-04-21T07:42:12.539Z,5.87
2023-04-21T07:45:14.193Z,5.83
2023-04-21T07:48:15.925Z,13.70
2023-04-21T07:51:18.084Z,9.93
2023-04-21T07:54:19.737Z,7.17
2023-04-21T07:57:21.350Z,6.27
2023-04-21T08:00:23.095Z,6.17
2023-04-21T08:03:25.091Z,6.03
2023-04-21T08:06:27.735Z,6.43
2023-04-21T08:09:29.405Z,5.90
2023-04-21T08:12:31.082Z,6.70
2023-04-21T08:15:33.582Z,7.43
2023-04-21T08:18:35.253Z,6.43
2023-04-21T08:21:37.208Z,7.17
2023-04-21T08:24:38.792Z,7.37
2023-04-21T08:27:40.609Z,7.90
2023-04-21T08:30:42.444Z,6.87
2023-04-21T08:33:58.044Z,6.70
2023-04-21T08:37:02.609Z,6.67
2023-04-21T08:40:05.064Z,9.77
2023-04-21T08:43:07.594Z,6.90
2023-04-21T08:46:09.470Z,10.70
2023-04-21T08:49:12.507Z,6.97
2023-04-21T08:52:14.808Z,5.90
2023-04-21T08:55:16.730Z,13.23
2023-04-21T08:58:18.370Z,10.57
2023-04-21T09:01:20.176Z,6.40
2023-04-21T09:04:22.074Z,6.33
2023-04-21T09:07:33.780Z,6.47
2023-04-21T09:10:44.579Z,6.53
2023-04-21T09:13:46.243Z,6.40
2023-04-21T09:16:59.492Z,6.70
2023-04-21T09:20:17.776Z,6.90
2023-04-21T09:23:21.204Z,6.40
2023-04-21T09:26:23.325Z,5.60
2023-04-21T09:29:25.393Z,6.27
2023-04-21T09:32:27.020Z,5.43
2023-04-21T09:35:29.378Z,4.87
2023-04-21T09:38:31.193Z,5.90
2023-04-21T09:41:33.344Z,8.07
2023-04-21T09:44:46.749Z,6.93
2023-04-21T09:47:56.759Z,5.50
2023-04-21T09:54:15.593Z,5.50
2023-04-21T09:57:26.988Z,7.37
2023-04-21T10:00:29.215Z,6.17
2023-04-21T10:03:31.711Z,4.47
2023-04-21T10:06:33.564Z,5.93
2023-04-21T10:09:38.955Z,5.37
2023-04-21T10:12:40.804Z,5.03
2023-04-21T10:15:42.643Z,5.77
2023-04-21T10:18:44.958Z,5.37
2023-04-21T10:21:49.589Z,5.37
2023-04-21T10:24:54.692Z,5.13
2023-04-21T10:27:56.645Z,5.33
2023-04-21T10:31:17.042Z,5.63
2023-04-21T10:34:19.806Z,5.90
2023-04-21T10:37:21.697Z,5.53
2023-04-21T10:40:44.378Z,4.80
2023-04-21T10:43:49.310Z,4.57
2023-04-21T10:46:54.138Z,4.53
2023-04-21T10:49:56.670Z,4.43
2023-04-21T10:53:09.732Z,8.20
2023-04-21T10:56:11.895Z,5.60
2023-04-21T10:59:15.136Z,7.97
2023-04-21T11:02:20.029Z,6.63
2023-04-21T11:05:27.438Z,6.70
2023-04-21T11:08:30.484Z,6.50
2023-04-21T11:11:32.173Z,6.00
2023-04-21T11:14:37.789Z,16.13
2023-04-21T11:17:40.014Z,4.87
2023-04-21T11:20:42.432Z,4.20
2023-04-21T11:23:53.158Z,5.03
2023-04-21T11:26:54.932Z,4.03
2023-04-21T11:29:57.509Z,4.23
2023-04-21T11:32:59.237Z,4.37
2023-04-21T11:36:03.352Z,4.07
2023-04-21T11:39:09.887Z,4.20
2023-04-21T11:42:14.126Z,4.50
2023-04-21T11:45:22.199Z,5.07
2023-04-21T11:48:29.638Z,4.57
2023-04-21T11:51:35.309Z,4.80
2023-04-21T11:54:36.950Z,5.80
2023-04-21T11:57:39.889Z,4.87
2023-04-21T12:00:44.172Z,5.57
2023-04-21T12:03:53.140Z,5.80
2023-04-21T12:07:02.164Z,5.23
2023-04-21T12:10:14.623Z,5.20
2023-04-21T12:13:22.872Z,5.43
2023-04-21T12:16:30.162Z,5.77
2023-04-21T12:19:42.125Z,4.50
2023-04-21T12:22:44.064Z,4.93
2023-04-21T12:25:48.988Z,4.90
2023-04-21T12:28:51.481Z,5.67
2023-04-21T12:31:53.218Z,4.73
2023-04-21T12:34:55.138Z,5.50
2023-04-21T12:37:56.787Z,5.07
2023-04-21T12:40:58.548Z,5.13
2023-04-21T12:44:00.418Z,5.37
2023-04-21T12:47:02.385Z,4.50
2023-04-21T12:50:04.312Z,4.80
2023-04-21T12:53:06.527Z,4.70
2023-04-21T12:56:08.371Z,4.10
2023-04-21T12:59:10.753Z,5.63
2023-04-21T13:02:12.533Z,4.17
2023-04-21T13:05:14.905Z,4.40
2023-04-21T13:08:16.591Z,4.50
2023-04-21T13:11:18.185Z,4.23
2023-04-21T13:14:19.963Z,4.73
2023-04-21T13:17:21.705Z,4.60
2023-04-21T13:20:23.520Z,4.50
2023-04-21T13:23:25.304Z,3.90
2023-04-21T13:26:27.079Z,4.23
2023-04-21T13:29:30.414Z,5.47
2023-04-21T13:32:32.360Z,4.80
2023-04-21T13:35:33.975Z,4.97
2023-04-21T13:38:35.682Z,4.90
2023-04-21T13:41:37.471Z,5.13
2023-04-21T13:44:39.166Z,4.20
2023-04-21T13:47:40.930Z,4.20
2023-04-21T13:50:42.580Z,4.93
2023-04-21T13:53:44.296Z,4.53
2023-04-21T13:56:46.080Z,4.77
2023-04-21T13:59:47.891Z,5.17
2023-04-21T14:02:49.949Z,5.07
2023-04-21T14:05:52.004Z,5.43
2023-04-21T14:08:54.016Z,5.37
2023-04-21T14:11:56.030Z,4.87
2023-04-21T14:14:57.739Z,5.30
2023-04-21T14:18:00.514Z,4.90
2023-04-21T14:21:02.380Z,4.67
2023-04-21T14:24:04.232Z,4.67
2023-04-21T14:27:06.248Z,4.60
2023-04-21T14:30:08.273Z,5.67
2023-04-21T14:33:10.073Z,4.47
2023-04-21T14:36:11.831Z,4.77
2023-04-21T14:39:13.548Z,4.70
2023-04-21T14:42:15.341Z,4.60
2023-04-21T14:45:17.090Z,4.73
2023-04-21T14:48:18.783Z,5.20
2023-04-21T14:51:21.663Z,4.43
2023-04-21T14:54:23.456Z,4.43
2023-04-21T14:57:25.233Z,4.43
2023-04-21T15:00:27.726Z,5.37
2023-04-21T15:03:29.613Z,4.50
2023-04-21T15:06:31.677Z,4.10
2023-04-21T15:09:33.667Z,4.60
2023-04-21T15:12:36.642Z,4.40
2023-04-21T15:15:38.670Z,4.87
2023-04-21T15:18:41.125Z,4.37
2023-04-21T15:21:43.646Z,4.57
2023-04-21T15:24:45.868Z,4.30
2023-04-21T15:27:47.479Z,4.40
2023-04-21T15:30:51.442Z,4.73
2023-04-21T15:33:54.321Z,4.77
2023-04-21T15:36:56.784Z,4.10
2023-04-21T15:40:01.163Z,4.60
2023-04-21T15:43:02.872Z,4.27
2023-04-21T15:46:13.189Z,4.77
2023-04-21T15:49:15.536Z,5.13
2023-04-21T15:52:17.245Z,4.17
2023-04-21T15:55:19.142Z,3.80
2023-04-21T15:58:24.593Z,4.30
2023-04-21T16:01:26.631Z,4.63
2023-04-21T16:04:28.786Z,5.67
2023-04-21T16:07:30.820Z,5.10
2023-04-21T16:10:32.782Z,4.93
2023-04-21T16:13:34.833Z,6.80
2023-04-21T16:16:39.469Z,6.77
2023-04-21T16:19:48.315Z,4.37
2023-04-21T16:22:50.855Z,4.50
2023-04-21T16:25:53.242Z,5.20
2023-04-21T16:28:56.563Z,6.20
2023-04-21T16:31:58.419Z,6.27
2023-04-21T16:35:00.284Z,5.53
2023-04-21T16:38:01.988Z,5.80
2023-04-21T16:41:03.876Z,6.03
2023-04-21T16:44:05.551Z,7.23
2023-04-21T16:47:09.864Z,6.53
2023-04-21T16:50:11.777Z,5.47
2023-04-21T16:53:13.514Z,5.47
2023-04-21T16:56:15.291Z,4.90
2023-04-21T16:59:21.580Z,5.40
2023-04-21T17:02:23.519Z,5.13
2023-04-21T17:05:25.847Z,4.83
2023-04-21T17:08:29.676Z,4.73
2023-04-21T17:11:32.752Z,4.80
2023-04-21T17:14:34.993Z,13.30
2023-04-21T17:17:45.103Z,11.73
2023-04-21T17:20:46.929Z,11.70
2023-04-21T17:23:50.246Z,13.37
2023-04-21T17:26:52.089Z,11.03
2023-04-21T17:29:53.881Z,19.97
2023-04-21T17:33:08.432Z,41.90
2023-04-21T17:36:17.036Z,49.70
2023-04-21T17:39:18.772Z,46.83
2023-04-21T17:42:20.819Z,20.47
2023-04-21T17:45:22.414Z,19.73
2023-04-21T17:48:24.126Z,13.20
2023-04-21T17:51:26.150Z,11.00
2023-04-21T17:54:27.815Z,12.37
2023-04-21T17:57:29.579Z,12.93
2023-04-21T18:00:34.618Z,13.90
2023-04-21T18:03:36.477Z,16.07
2023-04-21T18:06:38.338Z,18.80
2023-04-21T18:09:40.000Z,19.50
2023-04-21T18:12:41.717Z,19.00
2023-04-21T18:15:43.401Z,14.83
2023-04-21T18:18:47.392Z,12.33
2023-04-21T18:21:49.088Z,14.70
2023-04-21T18:24:50.881Z,12.67
2023-04-21T18:27:52.746Z,15.47
2023-04-21T18:30:54.543Z,16.10
2023-04-21T18:33:56.629Z,18.97
2023-04-21T18:36:58.422Z,19.27
2023-04-21T18:40:00.263Z,17.50
2023-04-21T18:43:02.298Z,17.47
2023-04-21T18:46:04.018Z,14.50
2023-04-21T18:49:06.185Z,14.17
2023-04-21T18:52:08.448Z,13.40
2023-04-21T18:55:10.256Z,14.10
2023-04-21T18:58:12.054Z,12.13
2023-04-21T19:01:13.849Z,12.40
2023-04-21T19:04:16.057Z,12.50
2023-04-21T19:07:17.952Z,12.80
2023-04-21T19:10:19.708Z,12.60
2023-04-21T19:13:21.463Z,13.20
2023-04-21T19:16:23.234Z,13.80
2023-04-21T19:19:26.524Z,11.60
2023-04-21T19:22:32.070Z,12.03
2023-04-21T19:25:34.033Z,9.83
2023-04-21T19:28:36.057Z,8.20
2023-04-21T19:31:43.719Z,9.73
2023-04-21T19:34:45.424Z,10.60
2023-04-21T19:37:47.430Z,8.07
2023-04-21T19:40:49.349Z,7.87
2023-04-21T19:43:51.042Z,8.53
2023-04-21T19:46:52.787Z,7.30
2023-04-21T19:49:54.523Z,6.87
2023-04-21T19:52:56.148Z,7.40
2023-04-21T19:55:57.731Z,7.20
2023-04-21T19:59:00.602Z,7.07
2023-04-21T20:02:02.507Z,7.40
2023-04-21T20:05:04.441Z,8.47
2023-04-21T20:08:06.400Z,8.80
2023-04-21T20:11:08.559Z,7.47
2023-04-21T20:14:10.801Z,7.00
2023-04-21T20:17:12.582Z,7.27
2023-04-21T20:20:15.431Z,7.47
2023-04-21T20:23:17.290Z,14.37
2023-04-21T20:26:18.982Z,8.30
2023-04-21T20:29:20.707Z,7.80
2023-04-21T20:32:22.447Z,6.90
2023-04-21T20:35:24.180Z,6.40
2023-04-21T20:38:26.576Z,6.40
2023-04-21T20:41:29.376Z,6.00
2023-04-21T20:44:34.018Z,6.70
2023-04-21T20:47:35.969Z,6.67
2023-04-21T20:50:37.986Z,6.60
2023-04-21T20:53:39.644Z,6.30
2023-04-21T20:56:41.611Z,5.73
2023-04-21T20:59:43.303Z,6.47
2023-04-21T21:02:45.419Z,5.77
2023-04-21T21:05:50.143Z,6.07
2023-04-21T21:08:52.240Z,5.77
2023-04-21T21:11:54.158Z,6.20
2023-04-21T21:14:56.085Z,5.57
2023-04-21T21:17:57.830Z,5.80
2023-04-21T21:20:59.873Z,6.10
2023-04-21T21:24:01.637Z,5.50
2023-04-21T21:27:03.482Z,5.30
2023-04-21T21:30:05.793Z,5.23
2023-04-21T21:33:07.428Z,5.10
2023-04-21T21:36:09.124Z,5.83
2023-04-21T21:39:11.531Z,5.07
2023-04-21T21:42:13.289Z,6.63
2023-04-21T21:45:15.033Z,5.07
2023-04-21T21:48:16.954Z,5.80
2023-04-21T21:51:19.615Z,6.17
2023-04-21T21:54:21.303Z,5.43
2023-04-21T21:57:22.954Z,5.17
2023-04-21T22:00:26.615Z,5.50
2023-04-21T22:03:28.385Z,4.97
2023-04-21T22:06:30.382Z,5.63
2023-04-21T22:09:32.129Z,5.60
2023-04-21T22:12:33.925Z,6.20
2023-04-21T22:15:37.215Z,6.30
2023-04-21T22:18:39.113Z,5.30
2023-04-21T22:21:40.780Z,5.43
2023-04-21T22:24:42.440Z,5.80
2023-04-21T22:27:44.274Z,5.47
2023-04-21T22:30:45.993Z,5.97
2023-04-21T22:33:47.670Z,5.87
2023-04-21T22:36:49.351Z,5.20
2023-04-21T22:39:51.086Z,5.80
2023-04-21T22:42:52.760Z,6.00
2023-04-21T22:45:54.505Z,5.50
2023-04-21T22:48:57.204Z,5.43
2023-04-21T22:51:58.886Z,4.80
2023-04-21T22:55:00.524Z,4.90
2023-04-21T22:58:02.186Z,5.10
2023-04-21T23:01:03.865Z,5.13
2023-04-21T23:04:05.673Z,4.80
2023-04-21T23:07:07.801Z,5.57
2023-04-21T23:10:09.816Z,5.40
2023-04-21T23:13:11.618Z,5.10
2023-04-21T23:16:13.304Z,5.90
2023-04-21T23:19:14.986Z,6.13
2023-04-21T23:22:16.735Z,5.30
2023-04-21T23:25:18.318Z,4.83
2023-04-21T23:28:20.572Z,5.43
2023-04-21T23:31:22.347Z,4.73
2023-04-21T23:34:24.021Z,4.50
2023-04-21T23:37:25.714Z,4.43
2023-04-21T23:40:27.358Z,4.77
2023-04-21T23:43:29.361Z,4.40
2023-04-21T23:46:31.462Z,4.53
2023-04-21T23:49:33.287Z,5.27
2023-04-21T23:52:34.931Z,4.37
2023-04-21T23:55:36.700Z,4.50
2023-04-21T23:58:38.372Z,4.60
